Espaço - Ciências - Fenômenos Naturais
Meteógrafos Informações Meteorológicas em tempo real

Aeroporto de Congonhas

Histórico do Tempo
Temperatura atual: 27 graus 80 F    Umidade relativa: 61 %
Velocidade do vento: 09 nós 16 Km/h    Direção: 340 graus NNW
Ajuste do altímetro ..: 1011 HPA
Visibilidade: Ótima    Tempo presente: Poucas nuvens esparsas

Observação
Nuvens esparsas a 3000 Pés.

Data Hora BRTTempo°CUmidadePressãoVentoVisib.
20/02 - 14:55   Chovendo fraco 26° 65% 1011 Norte-noroeste/27 km/h OK
20/02 - 13:55   Chovendo fraco 26° 65% 1011 Norte-noroeste/27 km/h OK
20/02 - 12:55   Parcialmente Nublado 26° 61% 1013 Noroeste/28 km/h OK
20/02 - 11:55   Parcialmente Nublado 26° 57% 1013 Norte-noroeste/27 km/h OK
20/02 - 10:55   Não Disponível 25° 65% 1014 Norte-noroeste/27 km/h OK
20/02 - 09:55   Não Disponível 25° 65% 1014 Norte-noroeste/27 km/h OK
20/02 - 08:55   Céu Limpo 23° 73% 1013 Norte/21 km/h OK
20/02 - 07:55   Céu Limpo 23° 73% 1013 Norte/21 km/h OK
20/02 - 06:55   Céu Limpo 21° 83% 1013 Norte/18 km/h OK
20/02 - 05:55   Céu Limpo 21° 83% 1013 Norte/18 km/h OK
20/02 - 04:55   Céu Limpo 22° 78% 1012 Norte/10 km/h OK
20/02 - 03:55   Céu Limpo 23° 73% 1012 Norte/12 km/h OK
20/02 - 02:55   Céu Limpo 23° 73% 1012 Norte-nordeste/9 km/h CAVO
20/02 - 01:55   Céu Limpo 23° 73% 1013 Nordeste/7 km/h OK
20/02 - 00:55   Céu Limpo 23° 78% 1013 Nordeste/7 km/h CAVO
19/02 - 23:55   Céu Limpo 24° 69% 1014 Nordeste/7 km/h OK
19/02 - 22:55   Céu Limpo 24° 69% 1015 Norte/7 km/h OK
19/02 - 21:55   Céu Limpo 24° 69% 1014 Norte-noroeste/9 km/h OK
19/02 - 20:55   Céu Limpo 25° 65% 1014 Norte-noroeste/14 km/h OK
19/02 - 19:55   Céu Limpo 25° 61% 1013 Noroeste/14 km/h OK
19/02 - 18:55   Parcialmente Nublado 26° 57% 1013 Noroeste/10 km/h OK
19/02 - 17:55   Parcialmente Nublado 25° 69% 1012 Norte-nordeste/9 km/h OK
19/02 - 16:55   Chovendo fraco 23° 78% 1013 Norte-nordeste/14 km/h OK
19/02 - 15:55   Não Disponível 26° 54% 1013 Noroeste/14 km/h OK


Apolo11.com - Todos os direitos reservados - 2000 - 2018
Política de Privacidade   |     Termo de Uso e Licenciamento   |  -   Entre em Contato

"Há pessoas que não levam em conta a realidade, mas em compensação a realidade também não as leva em conta" - Karl Marx